sensor_id;sensor_type;location;lat;lon;timestamp;P1;durP1;ratioP1;P2;durP2;ratioP2
30892;SDS011;17595;50.884;4.346;2023-02-23T00:01:36;58.25;;;38.22;;
30892;SDS011;17595;50.884;4.346;2023-02-23T00:04:04;59.53;;;38.65;;
30892;SDS011;17595;50.884;4.346;2023-02-23T00:06:32;62.87;;;40.27;;
30892;SDS011;17595;50.884;4.346;2023-02-23T00:08:59;62.95;;;39.40;;
30892;SDS011;17595;50.884;4.346;2023-02-23T00:11:26;64.47;;;38.58;;
30892;SDS011;17595;50.884;4.346;2023-02-23T00:13:52;62.55;;;37.50;;
30892;SDS011;17595;50.884;4.346;2023-02-23T00:16:19;61.78;;;37.42;;
30892;SDS011;17595;50.884;4.346;2023-02-23T00:18:50;61.13;;;36.57;;
30892;SDS011;17595;50.884;4.346;2023-02-23T00:21:24;61.78;;;37.58;;
30892;SDS011;17595;50.884;4.346;2023-02-23T00:23:56;55.13;;;37.28;;
30892;SDS011;17595;50.884;4.346;2023-02-23T00:26:24;61.15;;;38.15;;
30892;SDS011;17595;50.884;4.346;2023-02-23T00:28:54;56.88;;;36.17;;
30892;SDS011;17595;50.884;4.346;2023-02-23T00:31:21;55.80;;;35.67;;
30892;SDS011;17595;50.884;4.346;2023-02-23T00:33:50;56.58;;;35.60;;
30892;SDS011;17595;50.884;4.346;2023-02-23T00:36:18;55.83;;;35.13;;
30892;SDS011;17595;50.884;4.346;2023-02-23T00:38:45;52.72;;;33.90;;
30892;SDS011;17595;50.884;4.346;2023-02-23T00:41:12;51.35;;;34.72;;
30892;SDS011;17595;50.884;4.346;2023-02-23T00:43:42;51.05;;;33.67;;
30892;SDS011;17595;50.884;4.346;2023-02-23T00:46:14;49.17;;;32.78;;
30892;SDS011;17595;50.884;4.346;2023-02-23T00:48:45;53.35;;;34.15;;
30892;SDS011;17595;50.884;4.346;2023-02-23T00:51:12;51.28;;;33.95;;
30892;SDS011;17595;50.884;4.346;2023-02-23T00:53:38;51.28;;;33.03;;
30892;SDS011;17595;50.884;4.346;2023-02-23T00:56:05;53.22;;;34.08;;
30892;SDS011;17595;50.884;4.346;2023-02-23T00:58:31;46.15;;;32.33;;
30892;SDS011;17595;50.884;4.346;2023-02-23T01:00:57;47.25;;;32.58;;
30892;SDS011;17595;50.884;4.346;2023-02-23T01:03:29;47.30;;;31.50;;
30892;SDS011;17595;50.884;4.346;2023-02-23T01:06:01;46.20;;;31.35;;
30892;SDS011;17595;50.884;4.346;2023-02-23T01:08:33;49.17;;;33.45;;
30892;SDS011;17595;50.884;4.346;2023-02-23T01:11:08;47.28;;;32.25;;
30892;SDS011;17595;50.884;4.346;2023-02-23T01:13:36;48.53;;;32.03;;
30892;SDS011;17595;50.884;4.346;2023-02-23T01:16:04;53.67;;;32.22;;
30892;SDS011;17595;50.884;4.346;2023-02-23T01:18:31;51.00;;;32.92;;
30892;SDS011;17595;50.884;4.346;2023-02-23T01:20:58;50.55;;;33.92;;
30892;SDS011;17595;50.884;4.346;2023-02-23T01:23:24;47.85;;;32.33;;
30892;SDS011;17595;50.884;4.346;2023-02-23T01:25:50;51.65;;;32.92;;
30892;SDS011;17595;50.884;4.346;2023-02-23T01:28:15;49.22;;;32.75;;
30892;SDS011;17595;50.884;4.346;2023-02-23T01:30:41;50.50;;;34.00;;
30892;SDS011;17595;50.884;4.346;2023-02-23T01:33:07;51.30;;;33.47;;
30892;SDS011;17595;50.884;4.346;2023-02-23T01:35:33;56.50;;;34.72;;
30892;SDS011;17595;50.884;4.346;2023-02-23T01:37:58;54.60;;;34.53;;
30892;SDS011;17595;50.884;4.346;2023-02-23T01:40:24;58.22;;;35.88;;
30892;SDS011;17595;50.884;4.346;2023-02-23T01:42:58;58.22;;;35.92;;
30892;SDS011;17595;50.884;4.346;2023-02-23T01:45:36;59.17;;;35.75;;
30892;SDS011;17595;50.884;4.346;2023-02-23T01:50:48;57.28;;;35.83;;
30892;SDS011;17595;50.884;4.346;2023-02-23T01:53:14;55.65;;;35.35;;
30892;SDS011;17595;50.884;4.346;2023-02-23T01:55:41;64.53;;;36.58;;
30892;SDS011;17595;50.884;4.346;2023-02-23T01:58:09;63.58;;;37.35;;
30892;SDS011;17595;50.884;4.346;2023-02-23T02:00:40;69.03;;;38.58;;
30892;SDS011;17595;50.884;4.346;2023-02-23T02:03:24;66.07;;;38.47;;
30892;SDS011;17595;50.884;4.346;2023-02-23T02:05:53;66.35;;;37.35;;
30892;SDS011;17595;50.884;4.346;2023-02-23T02:08:20;69.88;;;38.55;;
30892;SDS011;17595;50.884;4.346;2023-02-23T02:10:49;68.57;;;38.60;;
30892;SDS011;17595;50.884;4.346;2023-02-23T02:13:20;68.50;;;40.35;;
30892;SDS011;17595;50.884;4.346;2023-02-23T02:21:23;66.78;;;38.10;;
30892;SDS011;17595;50.884;4.346;2023-02-23T02:24:07;69.90;;;36.78;;
30892;SDS011;17595;50.884;4.346;2023-02-23T02:27:12;71.55;;;37.70;;
30892;SDS011;17595;50.884;4.346;2023-02-23T02:46:39;80.22;;;40.00;;
30892;SDS011;17595;50.884;4.346;2023-02-23T02:49:19;83.97;;;42.78;;
30892;SDS011;17595;50.884;4.346;2023-02-23T02:51:53;79.85;;;41.88;;
30892;SDS011;17595;50.884;4.346;2023-02-23T02:57:02;82.82;;;38.42;;
30892;SDS011;17595;50.884;4.346;2023-02-23T02:59:29;82.78;;;38.42;;
30892;SDS011;17595;50.884;4.346;2023-02-23T03:02:14;82.43;;;39.58;;
30892;SDS011;17595;50.884;4.346;2023-02-23T03:05:01;75.88;;;37.72;;
30892;SDS011;17595;50.884;4.346;2023-02-23T03:08:03;81.15;;;38.58;;
30892;SDS011;17595;50.884;4.346;2023-02-23T03:11:07;80.68;;;38.58;;
30892;SDS011;17595;50.884;4.346;2023-02-23T03:17:31;83.43;;;38.45;;
30892;SDS011;17595;50.884;4.346;2023-02-23T03:23:20;84.05;;;38.22;;
30892;SDS011;17595;50.884;4.346;2023-02-23T03:26:30;80.88;;;37.17;;
30892;SDS011;17595;50.884;4.346;2023-02-23T03:29:29;85.83;;;38.13;;
30892;SDS011;17595;50.884;4.346;2023-02-23T03:32:23;80.35;;;35.92;;
30892;SDS011;17595;50.884;4.346;2023-02-23T03:38:51;74.93;;;34.80;;
30892;SDS011;17595;50.884;4.346;2023-02-23T03:41:20;83.78;;;34.90;;
30892;SDS011;17595;50.884;4.346;2023-02-23T03:44:09;78.97;;;35.67;;
30892;SDS011;17595;50.884;4.346;2023-02-23T03:49:42;75.18;;;34.20;;
30892;SDS011;17595;50.884;4.346;2023-02-23T03:52:52;77.90;;;36.47;;
30892;SDS011;17595;50.884;4.346;2023-02-23T03:55:37;79.22;;;35.03;;
30892;SDS011;17595;50.884;4.346;2023-02-23T03:58:27;74.43;;;35.40;;
30892;SDS011;17595;50.884;4.346;2023-02-23T04:01:17;67.90;;;34.50;;
30892;SDS011;17595;50.884;4.346;2023-02-23T04:04:03;70.68;;;33.97;;
30892;SDS011;17595;50.884;4.346;2023-02-23T04:06:50;73.80;;;34.17;;
30892;SDS011;17595;50.884;4.346;2023-02-23T04:09:38;67.68;;;33.85;;
30892;SDS011;17595;50.884;4.346;2023-02-23T04:18:22;68.57;;;35.20;;
30892;SDS011;17595;50.884;4.346;2023-02-23T04:20:50;72.80;;;37.50;;
30892;SDS011;17595;50.884;4.346;2023-02-23T04:23:16;77.82;;;39.33;;
30892;SDS011;17595;50.884;4.346;2023-02-23T04:25:42;75.70;;;37.60;;
30892;SDS011;17595;50.884;4.346;2023-02-23T04:28:07;75.50;;;39.05;;
30892;SDS011;17595;50.884;4.346;2023-02-23T04:30:33;76.75;;;37.58;;
30892;SDS011;17595;50.884;4.346;2023-02-23T04:32:59;76.82;;;39.95;;
30892;SDS011;17595;50.884;4.346;2023-02-23T04:35:24;81.68;;;38.80;;
30892;SDS011;17595;50.884;4.346;2023-02-23T04:37:52;82.90;;;40.58;;
30892;SDS011;17595;50.884;4.346;2023-02-23T04:40:18;82.88;;;39.83;;
30892;SDS011;17595;50.884;4.346;2023-02-23T04:42:44;81.25;;;40.22;;
30892;SDS011;17595;50.884;4.346;2023-02-23T04:45:09;81.53;;;38.95;;
30892;SDS011;17595;50.884;4.346;2023-02-23T04:47:35;102.35;;;48.75;;
30892;SDS011;17595;50.884;4.346;2023-02-23T04:50:02;81.28;;;40.60;;
30892;SDS011;17595;50.884;4.346;2023-02-23T04:52:27;85.47;;;40.50;;
30892;SDS011;17595;50.884;4.346;2023-02-23T04:54:53;81.30;;;40.45;;
30892;SDS011;17595;50.884;4.346;2023-02-23T04:57:19;83.80;;;40.67;;
30892;SDS011;17595;50.884;4.346;2023-02-23T04:59:44;88.47;;;39.22;;
30892;SDS011;17595;50.884;4.346;2023-02-23T05:02:10;84.75;;;40.55;;
30892;SDS011;17595;50.884;4.346;2023-02-23T05:04:36;78.25;;;39.53;;
30892;SDS011;17595;50.884;4.346;2023-02-23T05:07:01;81.28;;;39.65;;
30892;SDS011;17595;50.884;4.346;2023-02-23T05:09:28;75.95;;;39.45;;
30892;SDS011;17595;50.884;4.346;2023-02-23T05:11:54;79.60;;;39.08;;
30892;SDS011;17595;50.884;4.346;2023-02-23T05:14:20;84.03;;;38.67;;
30892;SDS011;17595;50.884;4.346;2023-02-23T05:16:46;77.22;;;38.42;;
30892;SDS011;17595;50.884;4.346;2023-02-23T05:19:12;75.93;;;38.03;;
30892;SDS011;17595;50.884;4.346;2023-02-23T05:21:37;73.10;;;38.15;;
30892;SDS011;17595;50.884;4.346;2023-02-23T05:24:03;81.63;;;38.20;;
30892;SDS011;17595;50.884;4.346;2023-02-23T05:26:29;79.78;;;40.47;;
30892;SDS011;17595;50.884;4.346;2023-02-23T05:28:55;75.60;;;37.78;;
30892;SDS011;17595;50.884;4.346;2023-02-23T05:31:21;87.90;;;40.53;;
30892;SDS011;17595;50.884;4.346;2023-02-23T05:33:48;85.43;;;40.47;;
30892;SDS011;17595;50.884;4.346;2023-02-23T05:36:15;76.60;;;38.88;;
30892;SDS011;17595;50.884;4.346;2023-02-23T05:38:42;83.50;;;39.78;;
30892;SDS011;17595;50.884;4.346;2023-02-23T05:41:09;85.82;;;39.70;;
30892;SDS011;17595;50.884;4.346;2023-02-23T05:43:36;83.70;;;41.22;;
30892;SDS011;17595;50.884;4.346;2023-02-23T05:46:06;90.00;;;43.10;;
30892;SDS011;17595;50.884;4.346;2023-02-23T05:48:36;91.90;;;42.45;;
30892;SDS011;17595;50.884;4.346;2023-02-23T05:51:02;94.28;;;42.97;;
30892;SDS011;17595;50.884;4.346;2023-02-23T05:53:29;91.30;;;40.40;;
30892;SDS011;17595;50.884;4.346;2023-02-23T05:55:55;85.05;;;40.97;;
30892;SDS011;17595;50.884;4.346;2023-02-23T05:58:20;92.30;;;42.75;;
30892;SDS011;17595;50.884;4.346;2023-02-23T06:00:46;86.38;;;42.17;;
30892;SDS011;17595;50.884;4.346;2023-02-23T06:03:12;91.50;;;42.97;;
30892;SDS011;17595;50.884;4.346;2023-02-23T06:05:38;93.38;;;42.80;;
30892;SDS011;17595;50.884;4.346;2023-02-23T06:08:03;97.78;;;44.45;;
30892;SDS011;17595;50.884;4.346;2023-02-23T06:10:29;90.43;;;44.55;;
30892;SDS011;17595;50.884;4.346;2023-02-23T06:12:55;96.28;;;45.20;;
30892;SDS011;17595;50.884;4.346;2023-02-23T06:15:20;86.95;;;42.33;;
30892;SDS011;17595;50.884;4.346;2023-02-23T06:17:46;90.18;;;43.90;;
30892;SDS011;17595;50.884;4.346;2023-02-23T06:20:12;88.22;;;44.28;;
30892;SDS011;17595;50.884;4.346;2023-02-23T06:22:38;87.25;;;44.40;;
30892;SDS011;17595;50.884;4.346;2023-02-23T06:25:04;95.93;;;45.90;;
30892;SDS011;17595;50.884;4.346;2023-02-23T06:27:36;96.85;;;46.55;;
30892;SDS011;17595;50.884;4.346;2023-02-23T06:30:03;81.53;;;41.15;;
30892;SDS011;17595;50.884;4.346;2023-02-23T06:32:29;89.13;;;42.38;;
30892;SDS011;17595;50.884;4.346;2023-02-23T06:34:55;95.68;;;44.03;;
30892;SDS011;17595;50.884;4.346;2023-02-23T06:37:21;91.22;;;43.10;;
30892;SDS011;17595;50.884;4.346;2023-02-23T06:39:46;88.65;;;43.38;;
30892;SDS011;17595;50.884;4.346;2023-02-23T06:42:12;89.25;;;43.50;;
30892;SDS011;17595;50.884;4.346;2023-02-23T06:44:39;83.45;;;41.88;;
30892;SDS011;17595;50.884;4.346;2023-02-23T06:47:04;84.32;;;40.88;;
30892;SDS011;17595;50.884;4.346;2023-02-23T06:49:30;84.03;;;42.50;;
30892;SDS011;17595;50.884;4.346;2023-02-23T06:51:56;83.13;;;41.03;;
30892;SDS011;17595;50.884;4.346;2023-02-23T06:54:22;87.15;;;43.20;;
30892;SDS011;17595;50.884;4.346;2023-02-23T06:56:48;87.20;;;43.35;;
30892;SDS011;17595;50.884;4.346;2023-02-23T06:59:14;83.05;;;41.97;;
30892;SDS011;17595;50.884;4.346;2023-02-23T07:01:39;82.43;;;41.45;;
30892;SDS011;17595;50.884;4.346;2023-02-23T07:04:09;79.15;;;42.03;;
30892;SDS011;17595;50.884;4.346;2023-02-23T07:06:35;80.90;;;42.00;;
30892;SDS011;17595;50.884;4.346;2023-02-23T07:09:03;86.78;;;40.42;;
30892;SDS011;17595;50.884;4.346;2023-02-23T07:11:29;90.07;;;44.10;;
30892;SDS011;17595;50.884;4.346;2023-02-23T07:13:58;94.20;;;43.72;;
30892;SDS011;17595;50.884;4.346;2023-02-23T07:16:25;93.15;;;43.15;;
30892;SDS011;17595;50.884;4.346;2023-02-23T07:18:52;86.85;;;44.03;;
30892;SDS011;17595;50.884;4.346;2023-02-23T07:21:18;88.47;;;42.70;;
30892;SDS011;17595;50.884;4.346;2023-02-23T07:23:44;91.25;;;42.38;;
30892;SDS011;17595;50.884;4.346;2023-02-23T07:26:12;88.83;;;41.90;;
30892;SDS011;17595;50.884;4.346;2023-02-23T07:28:39;83.38;;;42.25;;
30892;SDS011;17595;50.884;4.346;2023-02-23T07:31:05;88.60;;;42.17;;
30892;SDS011;17595;50.884;4.346;2023-02-23T07:33:31;89.10;;;43.17;;
30892;SDS011;17595;50.884;4.346;2023-02-23T07:35:57;87.00;;;42.33;;
30892;SDS011;17595;50.884;4.346;2023-02-23T07:38:22;94.93;;;44.55;;
30892;SDS011;17595;50.884;4.346;2023-02-23T07:40:48;88.43;;;42.95;;
30892;SDS011;17595;50.884;4.346;2023-02-23T07:43:15;89.65;;;43.55;;
30892;SDS011;17595;50.884;4.346;2023-02-23T07:45:40;96.95;;;46.33;;
30892;SDS011;17595;50.884;4.346;2023-02-23T07:48:07;89.97;;;42.38;;
30892;SDS011;17595;50.884;4.346;2023-02-23T07:50:33;89.68;;;43.70;;
30892;SDS011;17595;50.884;4.346;2023-02-23T07:52:59;88.45;;;43.40;;
30892;SDS011;17595;50.884;4.346;2023-02-23T07:55:25;90.65;;;45.15;;
30892;SDS011;17595;50.884;4.346;2023-02-23T07:57:51;90.72;;;42.97;;
30892;SDS011;17595;50.884;4.346;2023-02-23T08:00:18;94.45;;;45.58;;
30892;SDS011;17595;50.884;4.346;2023-02-23T08:02:44;89.38;;;46.95;;
30892;SDS011;17595;50.884;4.346;2023-02-23T08:05:09;89.90;;;45.08;;
30892;SDS011;17595;50.884;4.346;2023-02-23T08:07:35;92.50;;;44.35;;
30892;SDS011;17595;50.884;4.346;2023-02-23T08:10:01;88.82;;;46.33;;
30892;SDS011;17595;50.884;4.346;2023-02-23T08:12:27;85.53;;;43.97;;
30892;SDS011;17595;50.884;4.346;2023-02-23T08:14:52;79.28;;;42.30;;
30892;SDS011;17595;50.884;4.346;2023-02-23T08:17:18;81.45;;;42.78;;
30892;SDS011;17595;50.884;4.346;2023-02-23T08:19:44;85.05;;;43.03;;
30892;SDS011;17595;50.884;4.346;2023-02-23T08:22:09;79.63;;;43.15;;
30892;SDS011;17595;50.884;4.346;2023-02-23T08:24:35;84.30;;;44.20;;
30892;SDS011;17595;50.884;4.346;2023-02-23T08:27:01;80.70;;;42.55;;
30892;SDS011;17595;50.884;4.346;2023-02-23T08:29:28;79.97;;;40.58;;
30892;SDS011;17595;50.884;4.346;2023-02-23T08:31:54;76.57;;;41.55;;
30892;SDS011;17595;50.884;4.346;2023-02-23T08:34:20;78.65;;;41.58;;
30892;SDS011;17595;50.884;4.346;2023-02-23T08:36:46;73.43;;;40.53;;
30892;SDS011;17595;50.884;4.346;2023-02-23T08:39:13;82.50;;;42.10;;
30892;SDS011;17595;50.884;4.346;2023-02-23T08:41:39;75.03;;;40.15;;
30892;SDS011;17595;50.884;4.346;2023-02-23T08:44:05;70.20;;;39.17;;
30892;SDS011;17595;50.884;4.346;2023-02-23T08:46:31;74.85;;;38.28;;
30892;SDS011;17595;50.884;4.346;2023-02-23T08:48:57;72.82;;;38.92;;
30892;SDS011;17595;50.884;4.346;2023-02-23T08:51:23;75.13;;;39.78;;
30892;SDS011;17595;50.884;4.346;2023-02-23T08:53:49;67.30;;;37.55;;
30892;SDS011;17595;50.884;4.346;2023-02-23T08:56:15;78.38;;;40.50;;
30892;SDS011;17595;50.884;4.346;2023-02-23T08:58:41;74.38;;;41.05;;
30892;SDS011;17595;50.884;4.346;2023-02-23T09:01:13;76.43;;;40.78;;
30892;SDS011;17595;50.884;4.346;2023-02-23T09:03:41;79.45;;;41.03;;
30892;SDS011;17595;50.884;4.346;2023-02-23T09:06:08;81.85;;;42.10;;
30892;SDS011;17595;50.884;4.346;2023-02-23T09:08:39;71.70;;;39.22;;
30892;SDS011;17595;50.884;4.346;2023-02-23T09:11:05;72.13;;;40.58;;
30892;SDS011;17595;50.884;4.346;2023-02-23T09:13:31;74.75;;;38.97;;
30892;SDS011;17595;50.884;4.346;2023-02-23T09:15:57;70.78;;;39.20;;
30892;SDS011;17595;50.884;4.346;2023-02-23T09:18:23;65.20;;;37.55;;
30892;SDS011;17595;50.884;4.346;2023-02-23T09:20:53;66.05;;;38.03;;
30892;SDS011;17595;50.884;4.346;2023-02-23T09:23:19;63.78;;;37.22;;
30892;SDS011;17595;50.884;4.346;2023-02-23T09:25:45;66.57;;;38.35;;
30892;SDS011;17595;50.884;4.346;2023-02-23T09:28:11;66.93;;;38.20;;
30892;SDS011;17595;50.884;4.346;2023-02-23T09:30:39;68.63;;;38.67;;
30892;SDS011;17595;50.884;4.346;2023-02-23T09:33:07;68.28;;;37.55;;
30892;SDS011;17595;50.884;4.346;2023-02-23T09:35:33;76.07;;;39.78;;
30892;SDS011;17595;50.884;4.346;2023-02-23T09:38:00;71.38;;;38.90;;
30892;SDS011;17595;50.884;4.346;2023-02-23T09:40:34;68.40;;;37.72;;
30892;SDS011;17595;50.884;4.346;2023-02-23T09:46:02;73.03;;;39.30;;
30892;SDS011;17595;50.884;4.346;2023-02-23T09:48:36;75.47;;;39.83;;
30892;SDS011;17595;50.884;4.346;2023-02-23T09:51:01;75.85;;;39.70;;
30892;SDS011;17595;50.884;4.346;2023-02-23T09:56:13;75.50;;;41.70;;
30892;SDS011;17595;50.884;4.346;2023-02-23T09:58:43;84.97;;;46.50;;
30892;SDS011;17595;50.884;4.346;2023-02-23T10:01:18;86.95;;;46.38;;
30892;SDS011;17595;50.884;4.346;2023-02-23T10:12:18;79.43;;;42.38;;
30892;SDS011;17595;50.884;4.346;2023-02-23T10:20:49;70.50;;;35.83;;
30892;SDS011;17595;50.884;4.346;2023-02-23T10:23:29;70.05;;;36.92;;
30892;SDS011;17595;50.884;4.346;2023-02-23T10:26:16;73.07;;;37.88;;
30892;SDS011;17595;50.884;4.346;2023-02-23T10:28:45;67.93;;;38.05;;
30892;SDS011;17595;50.884;4.346;2023-02-23T10:33:51;69.00;;;37.80;;
30892;SDS011;17595;50.884;4.346;2023-02-23T10:39:07;58.33;;;34.38;;
30892;SDS011;17595;50.884;4.346;2023-02-23T10:41:34;59.20;;;32.85;;
30892;SDS011;17595;50.884;4.346;2023-02-23T10:44:00;59.15;;;32.25;;
30892;SDS011;17595;50.884;4.346;2023-02-23T10:46:36;55.38;;;33.10;;
30892;SDS011;17595;50.884;4.346;2023-02-23T10:49:05;61.08;;;34.38;;
30892;SDS011;17595;50.884;4.346;2023-02-23T10:51:33;56.58;;;32.53;;
30892;SDS011;17595;50.884;4.346;2023-02-23T10:56:58;54.13;;;31.88;;
30892;SDS011;17595;50.884;4.346;2023-02-23T10:59:24;56.15;;;31.83;;
30892;SDS011;17595;50.884;4.346;2023-02-23T11:01:51;57.50;;;32.15;;
30892;SDS011;17595;50.884;4.346;2023-02-23T11:06:46;61.33;;;33.83;;
30892;SDS011;17595;50.884;4.346;2023-02-23T11:14:27;55.53;;;31.33;;
30892;SDS011;17595;50.884;4.346;2023-02-23T11:16:54;56.65;;;31.02;;
30892;SDS011;17595;50.884;4.346;2023-02-23T11:19:39;52.58;;;29.10;;
30892;SDS011;17595;50.884;4.346;2023-02-23T11:22:05;53.50;;;31.00;;
30892;SDS011;17595;50.884;4.346;2023-02-23T11:24:46;51.78;;;29.90;;
30892;SDS011;17595;50.884;4.346;2023-02-23T11:27:17;52.55;;;29.70;;
30892;SDS011;17595;50.884;4.346;2023-02-23T11:29:47;50.72;;;28.80;;
30892;SDS011;17595;50.884;4.346;2023-02-23T11:34:44;49.25;;;29.42;;
30892;SDS011;17595;50.884;4.346;2023-02-23T11:39:51;54.22;;;32.05;;
30892;SDS011;17595;50.884;4.346;2023-02-23T11:42:22;57.17;;;32.28;;
30892;SDS011;17595;50.884;4.346;2023-02-23T11:44:51;64.10;;;37.38;;
30892;SDS011;17595;50.884;4.346;2023-02-23T11:47:26;66.10;;;38.60;;
30892;SDS011;17595;50.884;4.346;2023-02-23T11:49:52;67.80;;;37.15;;
30892;SDS011;17595;50.884;4.346;2023-02-23T11:52:20;68.82;;;39.15;;
30892;SDS011;17595;50.884;4.346;2023-02-23T11:57:19;70.00;;;38.83;;
30892;SDS011;17595;50.884;4.346;2023-02-23T11:59:46;63.90;;;36.97;;
30892;SDS011;17595;50.884;4.346;2023-02-23T12:04:43;67.75;;;36.47;;
30892;SDS011;17595;50.884;4.346;2023-02-23T12:09:46;63.58;;;37.13;;
30892;SDS011;17595;50.884;4.346;2023-02-23T12:12:19;60.85;;;35.60;;
30892;SDS011;17595;50.884;4.346;2023-02-23T12:14:51;62.28;;;34.42;;
30892;SDS011;17595;50.884;4.346;2023-02-23T12:17:27;61.38;;;35.05;;
30892;SDS011;17595;50.884;4.346;2023-02-23T12:22:43;60.53;;;33.58;;
30892;SDS011;17595;50.884;4.346;2023-02-23T12:28:32;66.43;;;39.63;;
30892;SDS011;17595;50.884;4.346;2023-02-23T12:33:41;66.28;;;38.15;;
30892;SDS011;17595;50.884;4.346;2023-02-23T12:46:50;73.03;;;42.58;;
30892;SDS011;17595;50.884;4.346;2023-02-23T12:49:24;74.63;;;42.30;;
30892;SDS011;17595;50.884;4.346;2023-02-23T12:52:03;70.30;;;41.30;;
30892;SDS011;17595;50.884;4.346;2023-02-23T12:54:35;70.90;;;41.45;;
30892;SDS011;17595;50.884;4.346;2023-02-23T13:00:27;69.22;;;40.65;;
30892;SDS011;17595;50.884;4.346;2023-02-23T13:05:54;73.45;;;43.45;;
30892;SDS011;17595;50.884;4.346;2023-02-23T13:16:29;73.32;;;43.15;;
30892;SDS011;17595;50.884;4.346;2023-02-23T13:21:43;75.57;;;42.75;;
30892;SDS011;17595;50.884;4.346;2023-02-23T13:24:36;74.00;;;41.08;;
30892;SDS011;17595;50.884;4.346;2023-02-23T13:29:49;60.53;;;35.30;;
30892;SDS011;17595;50.884;4.346;2023-02-23T13:32:19;62.80;;;35.95;;
30892;SDS011;17595;50.884;4.346;2023-02-23T13:34:49;64.78;;;37.67;;
30892;SDS011;17595;50.884;4.346;2023-02-23T13:37:20;72.38;;;40.28;;
30892;SDS011;17595;50.884;4.346;2023-02-23T13:43:12;73.82;;;42.13;;
30892;SDS011;17595;50.884;4.346;2023-02-23T13:56:23;55.33;;;31.23;;
30892;SDS011;17595;50.884;4.346;2023-02-23T13:58:51;60.28;;;35.08;;
30892;SDS011;17595;50.884;4.346;2023-02-23T14:01:27;57.38;;;31.45;;
30892;SDS011;17595;50.884;4.346;2023-02-23T14:04:00;50.55;;;29.58;;
30892;SDS011;17595;50.884;4.346;2023-02-23T14:06:29;49.00;;;27.17;;
30892;SDS011;17595;50.884;4.346;2023-02-23T14:08:58;44.50;;;26.60;;
30892;SDS011;17595;50.884;4.346;2023-02-23T14:11:42;42.85;;;23.90;;
30892;SDS011;17595;50.884;4.346;2023-02-23T14:22:36;42.90;;;24.67;;
30892;SDS011;17595;50.884;4.346;2023-02-23T14:25:51;40.10;;;23.40;;
30892;SDS011;17595;50.884;4.346;2023-02-23T14:28:33;43.97;;;23.30;;
30892;SDS011;17595;50.884;4.346;2023-02-23T14:39:34;37.78;;;22.40;;
30892;SDS011;17595;50.884;4.346;2023-02-23T14:41:53;40.35;;;22.52;;
30892;SDS011;17595;50.884;4.346;2023-02-23T14:49:25;36.05;;;20.02;;
30892;SDS011;17595;50.884;4.346;2023-02-23T14:51:53;32.63;;;19.20;;
30892;SDS011;17595;50.884;4.346;2023-02-23T14:54:30;35.42;;;18.45;;
30892;SDS011;17595;50.884;4.346;2023-02-23T14:57:01;32.90;;;19.45;;
30892;SDS011;17595;50.884;4.346;2023-02-23T14:59:41;41.83;;;20.08;;
30892;SDS011;17595;50.884;4.346;2023-02-23T15:02:15;31.08;;;18.40;;
30892;SDS011;17595;50.884;4.346;2023-02-23T15:04:41;28.67;;;16.65;;
30892;SDS011;17595;50.884;4.346;2023-02-23T15:07:08;35.97;;;17.17;;
30892;SDS011;17595;50.884;4.346;2023-02-23T15:09:42;29.00;;;16.75;;
30892;SDS011;17595;50.884;4.346;2023-02-23T15:12:13;29.45;;;17.17;;
30892;SDS011;17595;50.884;4.346;2023-02-23T15:14:42;24.38;;;14.63;;
30892;SDS011;17595;50.884;4.346;2023-02-23T15:17:11;32.65;;;16.00;;
30892;SDS011;17595;50.884;4.346;2023-02-23T15:19:39;29.00;;;16.50;;
30892;SDS011;17595;50.884;4.346;2023-02-23T15:22:05;26.55;;;16.33;;
30892;SDS011;17595;50.884;4.346;2023-02-23T15:24:41;31.25;;;17.52;;
30892;SDS011;17595;50.884;4.346;2023-02-23T15:27:19;27.20;;;16.63;;
30892;SDS011;17595;50.884;4.346;2023-02-23T15:29:51;29.88;;;16.83;;
30892;SDS011;17595;50.884;4.346;2023-02-23T15:32:21;23.88;;;14.98;;
30892;SDS011;17595;50.884;4.346;2023-02-23T15:34:49;22.35;;;13.80;;
30892;SDS011;17595;50.884;4.346;2023-02-23T15:37:36;24.92;;;15.23;;
30892;SDS011;17595;50.884;4.346;2023-02-23T15:40:06;23.42;;;14.10;;
30892;SDS011;17595;50.884;4.346;2023-02-23T15:42:40;24.23;;;14.10;;
30892;SDS011;17595;50.884;4.346;2023-02-23T15:45:55;23.40;;;13.90;;
30892;SDS011;17595;50.884;4.346;2023-02-23T15:48:07;24.80;;;12.95;;
30892;SDS011;17595;50.884;4.346;2023-02-23T15:50:46;19.17;;;12.90;;
30892;SDS011;17595;50.884;4.346;2023-02-23T15:53:28;22.67;;;13.75;;
30892;SDS011;17595;50.884;4.346;2023-02-23T15:56:03;20.58;;;12.60;;
30892;SDS011;17595;50.884;4.346;2023-02-23T15:58:39;19.15;;;12.40;;
30892;SDS011;17595;50.884;4.346;2023-02-23T16:01:11;19.85;;;12.38;;
30892;SDS011;17595;50.884;4.346;2023-02-23T16:03:55;19.20;;;12.80;;
30892;SDS011;17595;50.884;4.346;2023-02-23T16:11:43;18.58;;;11.68;;
30892;SDS011;17595;50.884;4.346;2023-02-23T16:14:15;20.38;;;12.77;;
30892;SDS011;17595;50.884;4.346;2023-02-23T16:16:44;17.25;;;12.05;;
30892;SDS011;17595;50.884;4.346;2023-02-23T16:19:13;19.35;;;12.57;;
30892;SDS011;17595;50.884;4.346;2023-02-23T16:21:41;19.30;;;12.70;;
30892;SDS011;17595;50.884;4.346;2023-02-23T16:24:08;19.45;;;13.07;;
30892;SDS011;17595;50.884;4.346;2023-02-23T16:26:43;18.73;;;12.80;;
30892;SDS011;17595;50.884;4.346;2023-02-23T16:29:15;19.67;;;13.45;;
30892;SDS011;17595;50.884;4.346;2023-02-23T16:31:52;17.25;;;12.52;;
30892;SDS011;17595;50.884;4.346;2023-02-23T16:34:32;25.17;;;15.85;;
30892;SDS011;17595;50.884;4.346;2023-02-23T16:37:03;22.10;;;14.55;;
30892;SDS011;17595;50.884;4.346;2023-02-23T16:39:39;22.40;;;15.85;;
30892;SDS011;17595;50.884;4.346;2023-02-23T16:42:05;21.83;;;14.52;;
30892;SDS011;17595;50.884;4.346;2023-02-23T16:44:34;21.85;;;15.70;;
30892;SDS011;17595;50.884;4.346;2023-02-23T16:49:25;22.83;;;15.20;;
30892;SDS011;17595;50.884;4.346;2023-02-23T16:51:54;22.95;;;16.48;;
30892;SDS011;17595;50.884;4.346;2023-02-23T16:54:20;22.63;;;16.13;;
30892;SDS011;17595;50.884;4.346;2023-02-23T16:56:46;24.95;;;15.60;;
30892;SDS011;17595;50.884;4.346;2023-02-23T16:59:13;24.02;;;15.90;;
30892;SDS011;17595;50.884;4.346;2023-02-23T17:01:41;25.50;;;16.47;;
30892;SDS011;17595;50.884;4.346;2023-02-23T17:04:10;24.27;;;15.77;;
30892;SDS011;17595;50.884;4.346;2023-02-23T17:06:39;25.85;;;18.20;;
30892;SDS011;17595;50.884;4.346;2023-02-23T17:09:09;27.15;;;17.58;;
30892;SDS011;17595;50.884;4.346;2023-02-23T17:11:36;27.88;;;17.65;;
30892;SDS011;17595;50.884;4.346;2023-02-23T17:14:03;26.17;;;16.50;;
30892;SDS011;17595;50.884;4.346;2023-02-23T17:16:28;22.90;;;16.08;;
30892;SDS011;17595;50.884;4.346;2023-02-23T17:18:54;23.33;;;15.23;;
30892;SDS011;17595;50.884;4.346;2023-02-23T17:21:23;22.65;;;15.35;;
30892;SDS011;17595;50.884;4.346;2023-02-23T17:23:49;18.63;;;14.38;;
30892;SDS011;17595;50.884;4.346;2023-02-23T17:26:17;24.10;;;14.98;;
30892;SDS011;17595;50.884;4.346;2023-02-23T17:28:44;18.30;;;14.90;;
30892;SDS011;17595;50.884;4.346;2023-02-23T17:31:10;18.17;;;15.32;;
30892;SDS011;17595;50.884;4.346;2023-02-23T17:33:37;19.88;;;15.10;;
30892;SDS011;17595;50.884;4.346;2023-02-23T17:36:04;19.27;;;13.73;;
30892;SDS011;17595;50.884;4.346;2023-02-23T17:38:32;19.05;;;14.52;;